createdAt,value
2018-03-02T00:04:20.000Z,997.608
2018-03-02T00:14:24.000Z,997.45
2018-03-02T00:24:20.000Z,997.303
2018-03-02T00:34:20.000Z,997.247
2018-03-02T00:44:20.000Z,997.23
2018-03-02T00:54:20.000Z,997.093
2018-03-02T01:04:20.000Z,996.997
2018-03-02T01:14:20.000Z,996.929
2018-03-02T01:24:21.000Z,996.869
2018-03-02T01:34:20.000Z,996.801
2018-03-02T01:44:20.000Z,996.62
2018-03-02T01:54:20.000Z,996.405
2018-03-02T02:04:20.000Z,996.396
2018-03-02T02:14:21.000Z,996.433
2018-03-02T02:24:21.000Z,996.25
2018-03-02T02:34:21.000Z,996.169
2018-03-02T02:44:21.000Z,996.035
2018-03-02T02:54:21.000Z,996.012
2018-03-02T03:04:21.000Z,996.082
2018-03-02T03:14:21.000Z,996.074
2018-03-02T03:24:21.000Z,995.893
2018-03-02T03:34:21.000Z,995.79
2018-03-02T03:44:21.000Z,995.648
2018-03-02T03:54:21.000Z,995.528
2018-03-02T04:04:21.000Z,995.473
2018-03-02T04:14:21.000Z,995.421
2018-03-02T04:24:21.000Z,995.336
2018-03-02T04:34:21.000Z,995.315
2018-03-02T04:44:21.000Z,995.314
2018-03-02T04:54:21.000Z,995.277
2018-03-02T05:04:21.000Z,995.26
2018-03-02T05:14:21.000Z,995.2
2018-03-02T05:24:21.000Z,995.132
2018-03-02T05:34:21.000Z,994.987
2018-03-02T05:44:21.000Z,994.838
2018-03-02T05:54:21.000Z,994.854
2018-03-02T06:04:21.000Z,994.764
2018-03-02T06:14:21.000Z,994.712
2018-03-02T06:24:21.000Z,994.766
2018-03-02T06:34:21.000Z,994.695
2018-03-02T06:44:21.000Z,994.676
2018-03-02T07:04:21.000Z,994.505
2018-03-02T07:14:21.000Z,994.481
2018-03-02T07:24:21.000Z,994.3
2018-03-02T07:34:21.000Z,994.282
2018-03-02T07:44:21.000Z,994.152
2018-03-02T07:54:21.000Z,994.229
2018-03-02T08:04:21.000Z,994.121
2018-03-02T08:14:21.000Z,994.028
2018-03-02T08:24:21.000Z,993.926
2018-03-02T08:34:21.000Z,993.888
2018-03-02T08:44:21.000Z,994.003
2018-03-02T08:54:21.000Z,993.864
2018-03-02T09:04:21.000Z,993.737
2018-03-02T09:14:21.000Z,993.731
2018-03-02T09:24:21.000Z,993.629
2018-03-02T09:34:21.000Z,993.476
2018-03-02T09:44:21.000Z,993.334
2018-03-02T09:54:21.000Z,993.391
2018-03-02T10:04:21.000Z,993.309
2018-03-02T10:14:21.000Z,993.247
2018-03-02T10:24:22.000Z,993.11
2018-03-02T10:34:22.000Z,993.018
2018-03-02T10:44:22.000Z,992.947
2018-03-02T10:54:22.000Z,992.922
2018-03-02T11:04:22.000Z,992.872
2018-03-02T11:14:22.000Z,992.874
2018-03-02T11:24:22.000Z,992.717
2018-03-02T11:34:22.000Z,992.495
2018-03-02T11:44:22.000Z,992.483
2018-03-02T11:54:22.000Z,992.444
2018-03-02T12:04:22.000Z,992.428
2018-03-02T12:14:22.000Z,992.345
2018-03-02T12:24:22.000Z,992.307
2018-03-02T12:34:22.000Z,992.17
2018-03-02T12:44:22.000Z,991.992
2018-03-02T12:54:22.000Z,992.101
2018-03-02T13:04:22.000Z,992.036
2018-03-02T13:14:22.000Z,992.019
2018-03-02T13:24:22.000Z,991.992
2018-03-02T13:34:22.000Z,992.085
2018-03-02T13:54:22.000Z,992.173
2018-03-02T14:14:22.000Z,992.121
2018-03-02T14:24:22.000Z,992.044
2018-03-02T14:34:22.000Z,991.918
2018-03-02T14:44:22.000Z,991.778
2018-03-02T14:54:26.000Z,991.653
2018-03-02T15:04:23.000Z,991.496
2018-03-02T15:14:22.000Z,991.393
2018-03-02T15:24:22.000Z,991.43
2018-03-02T15:34:22.000Z,991.489
2018-03-02T15:44:22.000Z,991.502
2018-03-02T15:54:22.000Z,991.574
2018-03-02T16:04:22.000Z,991.548
2018-03-02T16:14:22.000Z,991.453
2018-03-02T16:24:22.000Z,991.528
2018-03-02T16:34:22.000Z,991.599
2018-03-02T16:44:22.000Z,991.654
2018-03-02T16:54:22.000Z,991.749
2018-03-02T17:04:22.000Z,991.854
2018-03-02T17:14:22.000Z,991.94
2018-03-02T17:24:22.000Z,992.001
2018-03-02T17:34:22.000Z,992.085
2018-03-02T17:44:22.000Z,992.055
2018-03-02T17:54:22.000Z,992.105
2018-03-02T18:04:23.000Z,992.206
2018-03-02T18:14:22.000Z,992.27
2018-03-02T18:24:23.000Z,992.501
2018-03-02T18:34:23.000Z,992.514
2018-03-02T18:44:23.000Z,992.605
2018-03-02T18:54:23.000Z,992.693
2018-03-02T19:04:23.000Z,992.738
2018-03-02T19:14:23.000Z,992.817
2018-03-02T19:24:23.000Z,992.634
2018-03-02T19:34:23.000Z,992.668
2018-03-02T19:44:23.000Z,992.71
2018-03-02T19:54:24.000Z,992.636
2018-03-02T20:04:23.000Z,992.669
2018-03-02T20:14:23.000Z,992.749
2018-03-02T20:24:23.000Z,992.836
2018-03-02T20:34:23.000Z,992.853
2018-03-02T20:44:23.000Z,992.782
2018-03-02T20:54:24.000Z,992.725
2018-03-02T21:04:23.000Z,992.69
2018-03-02T21:14:23.000Z,992.722
2018-03-02T21:24:23.000Z,992.71
2018-03-02T21:34:23.000Z,992.697
2018-03-02T21:44:23.000Z,992.686
2018-03-02T21:54:23.000Z,992.701
2018-03-02T22:04:23.000Z,992.69
2018-03-02T22:14:24.000Z,992.671
2018-03-02T22:24:23.000Z,992.542
2018-03-02T22:34:23.000Z,992.598
2018-03-02T22:44:23.000Z,992.586
2018-03-02T22:54:23.000Z,992.649
2018-03-02T23:04:23.000Z,992.586
2018-03-02T23:14:23.000Z,992.545
2018-03-02T23:24:23.000Z,992.507
2018-03-02T23:34:23.000Z,992.501
2018-03-02T23:44:23.000Z,992.497
2018-03-02T23:54:24.000Z,992.443
